createdAt,value
2022-12-11T00:00:01.268Z,21.10
2022-12-11T00:10:27.373Z,22.93
2022-12-11T00:12:54.588Z,22.93
2022-12-11T00:15:22.808Z,21.47
2022-12-11T00:17:50.153Z,21.73
2022-12-11T00:20:18.073Z,23.57
2022-12-11T00:22:45.761Z,21.60
2022-12-11T00:25:13.576Z,22.30
2022-12-11T00:27:43.086Z,22.60
2022-12-11T00:35:16.020Z,21.63
2022-12-11T00:37:43.686Z,22.00
2022-12-11T00:40:11.882Z,18.67
2022-12-11T00:42:39.243Z,19.03
2022-12-11T00:45:07.752Z,17.47
2022-12-11T00:47:36.664Z,17.07
2022-12-11T00:50:04.654Z,17.60
2022-12-11T00:52:33.003Z,17.13
2022-12-11T01:00:06.866Z,20.07
2022-12-11T01:02:35.143Z,19.60
2022-12-11T01:05:02.825Z,16.87
2022-12-11T01:07:29.883Z,17.57
2022-12-11T01:10:14.819Z,17.77
2022-12-11T01:12:42.082Z,18.07
2022-12-11T01:15:12.029Z,19.60
2022-12-11T01:20:34.314Z,16.37
2022-12-11T01:23:01.764Z,16.47
2022-12-11T01:25:29.626Z,17.43
2022-12-11T01:27:56.943Z,17.23
2022-12-11T01:30:26.088Z,16.50
2022-12-11T01:32:53.302Z,18.43
2022-12-11T01:35:24.093Z,16.43
2022-12-11T01:37:52.653Z,18.10
2022-12-11T01:45:30.448Z,16.03
2022-12-11T01:48:02.448Z,16.07
2022-12-11T01:50:32.112Z,17.90
2022-12-11T01:52:59.815Z,17.67
2022-12-11T01:55:27.288Z,18.03
2022-12-11T01:57:55.365Z,17.30
2022-12-11T02:00:23.286Z,15.50
2022-12-11T02:06:37.545Z,16.17
2022-12-11T02:09:08.310Z,17.13
2022-12-11T02:11:53.305Z,19.07
2022-12-11T02:14:28.919Z,17.40
2022-12-11T02:17:00.782Z,20.17
2022-12-11T02:19:54.086Z,18.00
2022-12-11T02:30:17.995Z,17.70
2022-12-11T02:32:52.476Z,18.77
2022-12-11T02:35:23.692Z,17.47
2022-12-11T02:37:57.046Z,18.43
2022-12-11T02:40:28.559Z,18.87
2022-12-11T02:42:58.135Z,19.77
2022-12-11T02:45:29.187Z,19.37
2022-12-11T02:53:04.115Z,20.40
2022-12-11T02:55:35.972Z,19.70
2022-12-11T02:58:07.405Z,20.90
2022-12-11T03:00:35.956Z,20.07
2022-12-11T03:03:04.125Z,21.50
2022-12-11T03:05:31.777Z,15.83
2022-12-11T03:07:59.604Z,16.27
2022-12-11T03:13:07.712Z,16.47
2022-12-11T03:15:46.961Z,18.47
2022-12-11T03:18:20.054Z,17.83
2022-12-11T03:20:57.518Z,17.40
2022-12-11T03:23:33.219Z,17.73
2022-12-11T03:26:06.247Z,18.90
2022-12-11T03:28:43.134Z,17.40
2022-12-11T03:39:05.999Z,20.30
2022-12-11T03:41:35.554Z,16.83
2022-12-11T03:44:04.274Z,18.50
2022-12-11T03:46:34.269Z,16.47
2022-12-11T03:49:04.950Z,19.83
2022-12-11T03:54:26.410Z,18.23
2022-12-11T03:56:59.669Z,19.53
2022-12-11T04:04:33.059Z,25.87
2022-12-11T04:07:00.463Z,21.33
2022-12-11T04:09:27.818Z,22.23
2022-12-11T04:11:55.067Z,31.03
2022-12-11T04:14:40.808Z,26.30
2022-12-11T04:17:08.461Z,33.57
2022-12-11T04:19:54.919Z,34.03
2022-12-11T04:27:52.490Z,31.17
2022-12-11T04:30:22.793Z,40.40
2022-12-11T04:32:50.260Z,33.53
2022-12-11T04:35:17.918Z,33.67
2022-12-11T04:37:45.540Z,31.60
2022-12-11T04:40:15.739Z,40.17
2022-12-11T04:42:43.300Z,34.27
2022-12-11T04:45:13.770Z,34.73
2022-12-11T04:50:22.550Z,32.33
2022-12-11T04:52:50.450Z,33.00
2022-12-11T04:55:17.829Z,38.13
2022-12-11T04:57:45.352Z,31.60
2022-12-11T05:00:14.849Z,33.70
2022-12-11T05:02:43.111Z,36.70
2022-12-11T05:05:12.161Z,28.17
2022-12-11T05:07:41.801Z,37.73
2022-12-11T05:15:14.901Z,35.10
2022-12-11T05:17:42.260Z,37.37
2022-12-11T05:20:11.190Z,32.13
2022-12-11T05:22:39.484Z,39.97
2022-12-11T05:25:08.030Z,37.03
2022-12-11T05:27:35.731Z,30.37
2022-12-11T05:30:03.491Z,30.20
2022-12-11T05:32:32.335Z,36.27
2022-12-11T05:37:55.478Z,41.60
2022-12-11T05:40:22.903Z,34.33
2022-12-11T05:42:50.549Z,32.93
2022-12-11T05:45:18.321Z,25.77
2022-12-11T05:47:45.550Z,31.50
2022-12-11T05:50:14.568Z,26.20
2022-12-11T05:52:42.098Z,43.07
2022-12-11T06:00:15.480Z,21.73
2022-12-11T06:02:42.870Z,22.70
2022-12-11T06:05:11.593Z,25.00
2022-12-11T06:07:39.250Z,23.90
2022-12-11T06:10:07.621Z,22.53
2022-12-11T06:12:35.040Z,20.73
2022-12-11T06:15:02.710Z,24.23
2022-12-11T06:17:31.845Z,20.93
2022-12-11T06:27:55.771Z,21.57
2022-12-11T06:30:23.140Z,15.33
2022-12-11T06:33:05.555Z,21.93
2022-12-11T06:35:38.591Z,17.60
2022-12-11T06:38:09.141Z,19.73
2022-12-11T06:40:37.060Z,17.57
2022-12-11T06:43:05.392Z,15.17
2022-12-11T06:48:16.272Z,14.57
2022-12-11T06:50:45.439Z,14.10
2022-12-11T06:53:14.360Z,15.30
2022-12-11T06:55:42.449Z,17.00
2022-12-11T06:58:10.263Z,19.37
2022-12-11T07:00:38.462Z,23.20
2022-12-11T07:03:07.108Z,15.40
2022-12-11T07:08:29.824Z,17.33
2022-12-11T07:11:03.630Z,16.60
2022-12-11T07:13:33.858Z,12.87
2022-12-11T07:16:01.333Z,14.03
2022-12-11T07:18:29.405Z,12.17
2022-12-11T07:20:59.660Z,11.33
2022-12-11T07:23:27.761Z,12.50
2022-12-11T07:25:57.830Z,11.30
2022-12-11T07:33:30.500Z,12.13
2022-12-11T07:36:02.150Z,13.50
2022-12-11T07:38:29.908Z,15.03
2022-12-11T07:41:00.247Z,13.03
2022-12-11T07:43:27.579Z,12.47
2022-12-11T07:45:55.001Z,11.17
2022-12-11T07:48:22.690Z,12.73
2022-12-11T07:50:51.047Z,11.33
2022-12-11T07:58:39.212Z,14.40
2022-12-11T08:01:11.415Z,14.33
2022-12-11T08:03:39.414Z,15.03
2022-12-11T08:06:08.152Z,13.50
2022-12-11T08:08:36.391Z,17.13
2022-12-11T08:11:04.130Z,16.10
2022-12-11T08:13:32.111Z,16.63
2022-12-11T08:19:09.610Z,13.13
2022-12-11T08:21:36.869Z,12.13
2022-12-11T08:24:05.110Z,13.03
2022-12-11T08:26:32.527Z,14.37
2022-12-11T08:29:01.923Z,14.07
2022-12-11T08:31:31.190Z,11.53
2022-12-11T08:34:01.828Z,14.33
2022-12-11T08:41:34.840Z,14.40
2022-12-11T08:44:02.713Z,12.77
2022-12-11T08:46:32.392Z,14.67
2022-12-11T08:49:00.161Z,15.83
2022-12-11T08:51:29.161Z,13.60
2022-12-11T08:53:58.444Z,11.73
2022-12-11T08:56:27.242Z,13.43
2022-12-11T09:01:45.929Z,10.37
2022-12-11T09:04:15.861Z,10.27
2022-12-11T09:06:45.850Z,11.80
2022-12-11T09:09:14.551Z,12.83
2022-12-11T09:11:42.590Z,13.10
2022-12-11T09:14:10.299Z,13.60
2022-12-11T09:16:40.476Z,14.33
2022-12-11T09:21:52.810Z,17.57
2022-12-11T09:24:21.070Z,15.90
2022-12-11T09:26:48.791Z,13.90
2022-12-11T09:29:16.060Z,14.77
2022-12-11T09:31:45.880Z,15.97
2022-12-11T09:34:14.080Z,14.97
2022-12-11T09:36:44.171Z,13.93
2022-12-11T09:39:14.502Z,15.30
2022-12-11T09:46:49.234Z,14.57
2022-12-11T09:49:26.324Z,13.70
2022-12-11T09:52:04.078Z,13.00
2022-12-11T09:54:33.220Z,15.53
2022-12-11T09:57:09.738Z,13.70
2022-12-11T09:59:43.710Z,13.27
2022-12-11T10:02:25.152Z,15.40
2022-12-11T10:11:11.229Z,11.93
2022-12-11T10:13:49.049Z,12.20
2022-12-11T10:16:33.034Z,11.63
2022-12-11T10:19:04.042Z,12.83
2022-12-11T10:21:42.433Z,14.73
2022-12-11T10:24:33.780Z,12.00
2022-12-11T10:33:23.321Z,11.00
2022-12-11T10:35:55.883Z,10.63
2022-12-11T10:38:27.729Z,12.67
2022-12-11T10:40:59.643Z,10.83
2022-12-11T10:43:35.603Z,9.93
2022-12-11T10:46:04.351Z,9.60
2022-12-11T10:48:34.148Z,9.97
2022-12-11T10:51:04.950Z,9.53
2022-12-11T10:56:51.541Z,9.97
2022-12-11T10:59:25.439Z,10.00
2022-12-11T11:01:53.672Z,9.63
2022-12-11T11:04:26.739Z,8.60
2022-12-11T11:07:03.878Z,9.07
2022-12-11T11:09:36.379Z,8.90
2022-12-11T11:20:16.442Z,14.97
2022-12-11T11:22:47.344Z,13.10
2022-12-11T11:25:21.020Z,12.43
2022-12-11T11:27:55.346Z,13.57
2022-12-11T11:30:27.499Z,13.03
2022-12-11T11:33:01.291Z,12.93
2022-12-11T11:35:33.718Z,12.77
2022-12-11T11:43:58.560Z,14.13
2022-12-11T11:46:30.445Z,13.07
2022-12-11T11:49:06.691Z,11.40
2022-12-11T11:51:42.651Z,13.53
2022-12-11T11:54:21.630Z,14.27
2022-12-11T11:56:54.081Z,14.20
2022-12-11T11:59:30.474Z,11.83
2022-12-11T12:04:43.131Z,13.03
2022-12-11T12:07:28.728Z,10.53
2022-12-11T12:10:07.576Z,8.60
2022-12-11T12:12:44.600Z,9.83
2022-12-11T12:15:25.893Z,11.13
2022-12-11T12:17:57.101Z,10.13
2022-12-11T12:20:43.799Z,11.10
2022-12-11T12:28:56.100Z,11.23
2022-12-11T12:31:53.578Z,11.27
2022-12-11T12:34:35.328Z,13.07
2022-12-11T12:37:11.230Z,11.57
2022-12-11T12:39:47.149Z,10.57
2022-12-11T12:42:26.678Z,10.40
2022-12-11T12:45:01.138Z,10.77
2022-12-11T12:50:16.097Z,11.97
2022-12-11T12:52:46.148Z,10.80
2022-12-11T12:55:24.083Z,10.97
2022-12-11T12:57:55.131Z,12.03
2022-12-11T13:00:33.300Z,10.03
2022-12-11T13:03:04.348Z,11.57
2022-12-11T13:05:36.824Z,11.00
2022-12-11T13:08:06.681Z,10.47
2022-12-11T13:15:40.579Z,10.73
2022-12-11T13:18:34.629Z,9.73
2022-12-11T13:21:03.331Z,9.63
2022-12-11T13:23:35.901Z,11.17
2022-12-11T13:26:05.491Z,10.93
2022-12-11T13:28:52.080Z,10.80
2022-12-11T13:31:40.036Z,9.97
2022-12-11T13:39:22.167Z,10.90
2022-12-11T13:41:54.618Z,11.33
2022-12-11T13:44:27.078Z,13.00
2022-12-11T13:46:59.940Z,11.53
2022-12-11T13:49:33.698Z,13.30
2022-12-11T13:52:03.340Z,12.53
2022-12-11T13:54:41.608Z,11.93
2022-12-11T14:00:01.368Z,11.47
2022-12-11T14:02:35.438Z,10.50
2022-12-11T14:05:10.197Z,12.57
2022-12-11T14:07:47.991Z,12.40
2022-12-11T14:10:22.632Z,11.20
2022-12-11T14:12:55.589Z,11.17
2022-12-11T14:15:27.428Z,10.80
2022-12-11T14:23:20.029Z,11.67
2022-12-11T14:25:58.774Z,11.37
2022-12-11T14:28:32.019Z,12.63
2022-12-11T14:31:08.231Z,12.33
2022-12-11T14:33:43.052Z,10.27
2022-12-11T14:36:12.541Z,11.00
2022-12-11T14:38:50.808Z,9.97
2022-12-11T14:44:03.928Z,10.43
2022-12-11T14:46:41.090Z,9.70
2022-12-11T14:49:28.876Z,10.20
2022-12-11T14:52:03.649Z,9.50
2022-12-11T14:54:39.150Z,11.33
2022-12-11T14:57:14.621Z,9.93
2022-12-11T14:59:49.670Z,10.50
2022-12-11T15:08:00.761Z,9.63
2022-12-11T15:10:35.596Z,10.80
2022-12-11T15:13:06.078Z,9.93
2022-12-11T15:15:45.920Z,9.13
2022-12-11T15:18:25.858Z,9.77
2022-12-11T15:20:58.351Z,8.97
2022-12-11T15:23:33.049Z,9.00
2022-12-11T15:33:58.730Z,8.73
2022-12-11T15:36:33.758Z,7.67
2022-12-11T15:39:02.137Z,10.13
2022-12-11T15:41:33.448Z,9.80
2022-12-11T15:44:04.671Z,9.57
2022-12-11T15:46:39.096Z,9.00
2022-12-11T15:49:14.718Z,9.87
2022-12-11T15:51:43.659Z,8.77
2022-12-11T15:56:51.762Z,8.37
2022-12-11T15:59:22.935Z,10.13
2022-12-11T16:01:58.107Z,10.47
2022-12-11T16:04:27.730Z,9.70
2022-12-11T16:06:56.304Z,8.90
2022-12-11T16:09:25.999Z,9.33
2022-12-11T16:11:56.348Z,8.53
2022-12-11T16:14:26.292Z,7.37
2022-12-11T16:22:05.181Z,9.13
2022-12-11T16:24:34.647Z,8.80
2022-12-11T16:27:06.461Z,10.90
2022-12-11T16:29:37.612Z,9.30
2022-12-11T16:32:13.620Z,9.97
2022-12-11T16:34:45.991Z,9.13
2022-12-11T16:37:20.031Z,8.97
2022-12-11T16:45:42.778Z,8.97
2022-12-11T16:48:11.478Z,10.07
2022-12-11T16:50:43.343Z,9.40
2022-12-11T16:53:14.790Z,9.27
2022-12-11T16:55:48.451Z,9.50
2022-12-11T16:58:20.088Z,9.70
2022-12-11T17:00:54.342Z,8.17
2022-12-11T17:06:52.131Z,8.13
2022-12-11T17:09:21.073Z,7.70
2022-12-11T17:11:48.799Z,8.20
2022-12-11T17:14:17.121Z,7.93
2022-12-11T17:16:45.383Z,9.97
2022-12-11T17:19:14.318Z,10.37
2022-12-11T17:21:43.803Z,11.53
2022-12-11T17:24:16.528Z,10.37
2022-12-11T17:31:52.930Z,12.10
2022-12-11T17:34:22.090Z,12.23
2022-12-11T17:36:51.181Z,10.50
2022-12-11T17:39:25.630Z,11.37
2022-12-11T17:41:58.862Z,11.80
2022-12-11T17:44:30.821Z,13.03
2022-12-11T17:47:07.565Z,11.83
2022-12-11T17:49:41.060Z,12.50
2022-12-11T17:57:15.389Z,13.13
2022-12-11T17:59:43.171Z,13.03
2022-12-11T18:02:13.062Z,11.70
2022-12-11T18:04:43.901Z,12.50
2022-12-11T18:07:21.929Z,12.90
2022-12-11T18:09:54.875Z,12.77
2022-12-11T18:12:27.581Z,12.83
2022-12-11T18:18:25.834Z,14.80
2022-12-11T18:20:56.169Z,13.57
2022-12-11T18:23:27.398Z,15.57
2022-12-11T18:25:58.891Z,11.90
2022-12-11T18:28:27.118Z,12.77
2022-12-11T18:30:57.392Z,11.77
2022-12-11T18:33:28.577Z,12.87
2022-12-11T18:36:00.960Z,14.17
2022-12-11T18:43:32.219Z,15.43
2022-12-11T18:46:00.468Z,16.07
2022-12-11T18:48:28.480Z,14.47
2022-12-11T18:50:58.569Z,14.87
2022-12-11T18:53:27.030Z,12.70
2022-12-11T18:56:00.168Z,13.87
2022-12-11T18:58:29.970Z,12.67
2022-12-11T19:01:05.372Z,12.70
2022-12-11T19:06:19.420Z,14.00
2022-12-11T19:08:49.520Z,13.73
2022-12-11T19:11:21.160Z,12.10
2022-12-11T19:13:55.191Z,12.27
2022-12-11T19:16:30.856Z,13.60
2022-12-11T19:19:02.452Z,11.87
2022-12-11T19:21:31.663Z,12.20
2022-12-11T19:29:03.459Z,13.03
2022-12-11T19:31:37.822Z,13.77
2022-12-11T19:34:09.110Z,13.83
2022-12-11T19:36:43.761Z,14.00
2022-12-11T19:39:15.529Z,15.07
2022-12-11T19:41:48.624Z,12.57
2022-12-11T19:44:21.210Z,12.67
2022-12-11T19:54:53.528Z,13.10
2022-12-11T19:57:23.571Z,11.83
2022-12-11T20:00:01.728Z,10.27
2022-12-11T20:02:33.135Z,9.07
2022-12-11T20:05:03.810Z,8.60
2022-12-11T20:07:32.588Z,9.27
2022-12-11T20:10:11.273Z,7.60
2022-12-11T20:20:16.266Z,7.93
2022-12-11T20:22:48.778Z,10.57
2022-12-11T20:25:18.433Z,9.83
2022-12-11T20:27:51.209Z,8.57
2022-12-11T20:30:24.210Z,9.97
2022-12-11T20:32:52.678Z,9.37
2022-12-11T20:35:27.729Z,10.43
2022-12-11T20:37:56.230Z,8.43
2022-12-11T20:45:32.213Z,10.20
2022-12-11T20:48:00.292Z,9.77
2022-12-11T20:50:31.312Z,10.27
2022-12-11T20:53:34.979Z,11.07
2022-12-11T20:56:11.441Z,10.37
2022-12-11T20:58:41.669Z,10.07
2022-12-11T21:01:18.417Z,8.77
2022-12-11T21:03:46.500Z,9.17
2022-12-11T21:11:19.959Z,9.00
2022-12-11T21:13:47.708Z,8.57
2022-12-11T21:16:16.642Z,8.37
2022-12-11T21:18:45.944Z,7.80
2022-12-11T21:21:14.218Z,7.53
2022-12-11T21:23:42.250Z,10.17
2022-12-11T21:26:10.400Z,7.13
2022-12-11T21:28:39.020Z,9.03
2022-12-11T21:38:54.460Z,7.73
2022-12-11T21:41:25.093Z,8.13
2022-12-11T21:46:43.045Z,7.50
2022-12-11T21:49:11.878Z,7.73
2022-12-11T21:51:46.824Z,8.37
2022-12-11T21:54:17.721Z,8.60
2022-12-11T22:01:51.226Z,8.93
2022-12-11T22:04:20.501Z,8.70
2022-12-11T22:06:48.411Z,8.83
2022-12-11T22:09:18.430Z,9.47
2022-12-11T22:11:47.987Z,8.43
2022-12-11T22:14:17.681Z,10.57
2022-12-11T22:16:48.863Z,9.37
2022-12-11T22:22:16.360Z,8.67
2022-12-11T22:24:46.830Z,9.30
2022-12-11T22:27:16.830Z,9.73
2022-12-11T22:29:48.081Z,10.00
2022-12-11T22:32:16.445Z,10.00
2022-12-11T22:34:45.019Z,10.47
2022-12-11T22:37:12.399Z,10.93
2022-12-11T22:39:41.284Z,10.67
2022-12-11T22:47:14.811Z,12.20
2022-12-11T22:49:42.840Z,11.27
2022-12-11T22:52:11.352Z,13.33
2022-12-11T22:54:39.239Z,13.43
2022-12-11T22:57:08.018Z,12.83
2022-12-11T22:59:37.667Z,12.33
2022-12-11T23:02:04.929Z,14.77
2022-12-11T23:04:33.668Z,14.70
2022-12-11T23:12:10.690Z,13.17
2022-12-11T23:14:38.388Z,15.43
2022-12-11T23:17:05.713Z,16.30
2022-12-11T23:19:34.301Z,15.87
2022-12-11T23:22:01.521Z,18.03
2022-12-11T23:24:28.897Z,19.63
2022-12-11T23:26:56.265Z,17.17
2022-12-11T23:29:25.250Z,19.23
2022-12-11T23:39:54.800Z,18.13
2022-12-11T23:42:22.281Z,21.43
2022-12-11T23:44:51.349Z,21.07
2022-12-11T23:47:19.010Z,21.40
2022-12-11T23:49:46.377Z,18.87
2022-12-11T23:52:13.659Z,19.40
2022-12-11T23:54:41.010Z,21.07
2022-12-11T23:57:09.921Z,20.53
